sensor_id;sensor_type;location;lat;lon;timestamp;P1;durP1;ratioP1;P2;durP2;ratioP2
6344;SDS011;3205;42.666;23.264;2022-09-09T00:01:20;12.73;;;10.80;;
6344;SDS011;3205;42.666;23.264;2022-09-09T00:03:53;10.80;;;9.40;;
6344;SDS011;3205;42.666;23.264;2022-09-09T00:06:23;14.88;;;10.52;;
6344;SDS011;3205;42.666;23.264;2022-09-09T00:08:54;12.77;;;10.10;;
6344;SDS011;3205;42.666;23.264;2022-09-09T00:11:26;10.20;;;9.20;;
6344;SDS011;3205;42.666;23.264;2022-09-09T00:13:54;11.07;;;9.98;;
6344;SDS011;3205;42.666;23.264;2022-09-09T00:16:25;15.35;;;9.98;;
6344;SDS011;3205;42.666;23.264;2022-09-09T00:18:55;10.90;;;9.70;;
6344;SDS011;3205;42.666;23.264;2022-09-09T00:21:24;10.98;;;9.68;;
6344;SDS011;3205;42.666;23.264;2022-09-09T00:23:53;11.40;;;10.30;;
6344;SDS011;3205;42.666;23.264;2022-09-09T00:26:22;11.18;;;10.05;;
6344;SDS011;3205;42.666;23.264;2022-09-09T00:28:57;18.25;;;9.60;;
6344;SDS011;3205;42.666;23.264;2022-09-09T00:31:27;10.10;;;9.00;;
6344;SDS011;3205;42.666;23.264;2022-09-09T00:33:58;13.02;;;10.20;;
6344;SDS011;3205;42.666;23.264;2022-09-09T00:36:26;10.57;;;9.40;;
6344;SDS011;3205;42.666;23.264;2022-09-09T00:38:55;11.93;;;9.13;;
6344;SDS011;3205;42.666;23.264;2022-09-09T00:41:25;16.55;;;10.68;;
6344;SDS011;3205;42.666;23.264;2022-09-09T00:43:56;11.43;;;10.00;;
6344;SDS011;3205;42.666;23.264;2022-09-09T00:46:36;12.25;;;10.30;;
6344;SDS011;3205;42.666;23.264;2022-09-09T00:49:13;11.52;;;10.30;;
6344;SDS011;3205;42.666;23.264;2022-09-09T00:51:44;18.00;;;10.50;;
6344;SDS011;3205;42.666;23.264;2022-09-09T00:54:22;11.43;;;10.02;;
6344;SDS011;3205;42.666;23.264;2022-09-09T00:56:53;15.18;;;10.15;;
6344;SDS011;3205;42.666;23.264;2022-09-09T00:59:28;14.48;;;10.05;;
6344;SDS011;3205;42.666;23.264;2022-09-09T01:02:01;11.73;;;9.88;;
6344;SDS011;3205;42.666;23.264;2022-09-09T01:04:32;10.80;;;9.55;;
6344;SDS011;3205;42.666;23.264;2022-09-09T01:07:02;13.18;;;10.07;;
6344;SDS011;3205;42.666;23.264;2022-09-09T01:09:32;10.77;;;9.63;;
6344;SDS011;3205;42.666;23.264;2022-09-09T01:12:02;11.45;;;9.35;;
6344;SDS011;3205;42.666;23.264;2022-09-09T01:14:38;10.63;;;9.57;;
6344;SDS011;3205;42.666;23.264;2022-09-09T01:17:08;10.20;;;9.20;;
6344;SDS011;3205;42.666;23.264;2022-09-09T01:19:40;11.38;;;10.18;;
6344;SDS011;3205;42.666;23.264;2022-09-09T01:22:12;11.90;;;9.80;;
6344;SDS011;3205;42.666;23.264;2022-09-09T01:24:42;13.27;;;9.50;;
6344;SDS011;3205;42.666;23.264;2022-09-09T01:27:17;11.18;;;10.07;;
6344;SDS011;3205;42.666;23.264;2022-09-09T01:29:44;13.55;;;9.80;;
6344;SDS011;3205;42.666;23.264;2022-09-09T01:34:55;10.40;;;9.40;;
6344;SDS011;3205;42.666;23.264;2022-09-09T01:37:22;10.40;;;9.38;;
6344;SDS011;3205;42.666;23.264;2022-09-09T01:39:49;14.77;;;9.98;;
6344;SDS011;3205;42.666;23.264;2022-09-09T01:42:17;11.70;;;9.30;;
6344;SDS011;3205;42.666;23.264;2022-09-09T01:44:44;11.75;;;9.30;;
6344;SDS011;3205;42.666;23.264;2022-09-09T01:47:10;13.80;;;9.63;;
6344;SDS011;3205;42.666;23.264;2022-09-09T01:49:38;11.05;;;9.88;;
6344;SDS011;3205;42.666;23.264;2022-09-09T01:52:05;13.15;;;9.52;;
6344;SDS011;3205;42.666;23.264;2022-09-09T01:54:33;11.68;;;9.23;;
6344;SDS011;3205;42.666;23.264;2022-09-09T01:57:01;14.45;;;10.50;;
6344;SDS011;3205;42.666;23.264;2022-09-09T01:59:47;13.80;;;9.90;;
6344;SDS011;3205;42.666;23.264;2022-09-09T02:02:16;13.93;;;9.93;;
6344;SDS011;3205;42.666;23.264;2022-09-09T02:04:44;14.55;;;9.77;;
6344;SDS011;3205;42.666;23.264;2022-09-09T02:07:14;15.30;;;10.13;;
6344;SDS011;3205;42.666;23.264;2022-09-09T02:09:44;10.85;;;9.07;;
6344;SDS011;3205;42.666;23.264;2022-09-09T02:12:13;14.93;;;9.55;;
6344;SDS011;3205;42.666;23.264;2022-09-09T02:14:41;15.40;;;10.52;;
6344;SDS011;3205;42.666;23.264;2022-09-09T02:17:11;15.27;;;10.57;;
6344;SDS011;3205;42.666;23.264;2022-09-09T02:19:41;13.20;;;10.65;;
6344;SDS011;3205;42.666;23.264;2022-09-09T02:22:08;11.52;;;10.32;;
6344;SDS011;3205;42.666;23.264;2022-09-09T02:24:36;20.65;;;10.38;;
6344;SDS011;3205;42.666;23.264;2022-09-09T02:27:03;13.93;;;10.75;;
6344;SDS011;3205;42.666;23.264;2022-09-09T02:29:32;12.68;;;10.30;;
6344;SDS011;3205;42.666;23.264;2022-09-09T02:32:03;15.73;;;10.25;;
6344;SDS011;3205;42.666;23.264;2022-09-09T02:34:33;12.20;;;9.90;;
6344;SDS011;3205;42.666;23.264;2022-09-09T02:37:01;11.52;;;10.38;;
6344;SDS011;3205;42.666;23.264;2022-09-09T02:39:28;11.38;;;9.85;;
6344;SDS011;3205;42.666;23.264;2022-09-09T02:41:55;11.63;;;9.20;;
6344;SDS011;3205;42.666;23.264;2022-09-09T02:44:21;12.48;;;10.00;;
6344;SDS011;3205;42.666;23.264;2022-09-09T02:47:01;12.65;;;10.23;;
6344;SDS011;3205;42.666;23.264;2022-09-09T02:49:31;12.48;;;10.32;;
6344;SDS011;3205;42.666;23.264;2022-09-09T02:52:04;11.85;;;10.30;;
6344;SDS011;3205;42.666;23.264;2022-09-09T02:54:32;13.70;;;10.02;;
6344;SDS011;3205;42.666;23.264;2022-09-09T02:57:00;12.75;;;10.38;;
6344;SDS011;3205;42.666;23.264;2022-09-09T02:59:28;10.65;;;9.60;;
6344;SDS011;3205;42.666;23.264;2022-09-09T03:01:56;12.95;;;10.20;;
6344;SDS011;3205;42.666;23.264;2022-09-09T03:04:22;14.35;;;10.57;;
6344;SDS011;3205;42.666;23.264;2022-09-09T03:06:50;13.38;;;11.45;;
6344;SDS011;3205;42.666;23.264;2022-09-09T03:09:18;12.40;;;10.88;;
6344;SDS011;3205;42.666;23.264;2022-09-09T03:11:45;12.43;;;11.13;;
6344;SDS011;3205;42.666;23.264;2022-09-09T03:14:11;14.60;;;10.65;;
6344;SDS011;3205;42.666;23.264;2022-09-09T03:16:38;14.63;;;10.80;;
6344;SDS011;3205;42.666;23.264;2022-09-09T03:19:05;15.38;;;10.43;;
6344;SDS011;3205;42.666;23.264;2022-09-09T03:21:33;18.88;;;10.75;;
6344;SDS011;3205;42.666;23.264;2022-09-09T03:23:59;11.30;;;9.80;;
6344;SDS011;3205;42.666;23.264;2022-09-09T03:26:29;14.68;;;10.38;;
6344;SDS011;3205;42.666;23.264;2022-09-09T03:29:00;11.52;;;10.32;;
6344;SDS011;3205;42.666;23.264;2022-09-09T03:31:26;15.55;;;10.90;;
6344;SDS011;3205;42.666;23.264;2022-09-09T03:33:55;14.18;;;10.45;;
6344;SDS011;3205;42.666;23.264;2022-09-09T03:36:23;19.85;;;11.27;;
6344;SDS011;3205;42.666;23.264;2022-09-09T03:38:51;17.25;;;11.32;;
6344;SDS011;3205;42.666;23.264;2022-09-09T03:41:19;14.60;;;10.70;;
6344;SDS011;3205;42.666;23.264;2022-09-09T03:43:50;14.95;;;10.63;;
6344;SDS011;3205;42.666;23.264;2022-09-09T03:46:17;22.42;;;11.27;;
6344;SDS011;3205;42.666;23.264;2022-09-09T03:48:44;18.90;;;11.40;;
6344;SDS011;3205;42.666;23.264;2022-09-09T03:51:11;15.05;;;10.05;;
6344;SDS011;3205;42.666;23.264;2022-09-09T03:53:40;13.05;;;10.30;;
6344;SDS011;3205;42.666;23.264;2022-09-09T03:56:06;12.85;;;10.95;;
6344;SDS011;3205;42.666;23.264;2022-09-09T03:58:33;12.88;;;10.88;;
6344;SDS011;3205;42.666;23.264;2022-09-09T04:01:02;17.67;;;10.70;;
6344;SDS011;3205;42.666;23.264;2022-09-09T04:03:29;19.40;;;11.75;;
6344;SDS011;3205;42.666;23.264;2022-09-09T04:05:57;21.70;;;11.35;;
6344;SDS011;3205;42.666;23.264;2022-09-09T04:08:24;19.15;;;11.90;;
6344;SDS011;3205;42.666;23.264;2022-09-09T04:10:51;25.45;;;12.82;;
6344;SDS011;3205;42.666;23.264;2022-09-09T04:13:22;20.88;;;11.82;;
6344;SDS011;3205;42.666;23.264;2022-09-09T04:15:50;18.85;;;11.90;;
6344;SDS011;3205;42.666;23.264;2022-09-09T04:18:18;20.05;;;12.15;;
6344;SDS011;3205;42.666;23.264;2022-09-09T04:20:45;13.95;;;11.88;;
6344;SDS011;3205;42.666;23.264;2022-09-09T04:23:12;21.50;;;11.93;;
6344;SDS011;3205;42.666;23.264;2022-09-09T04:25:42;16.33;;;11.57;;
6344;SDS011;3205;42.666;23.264;2022-09-09T04:28:08;17.77;;;12.25;;
6344;SDS011;3205;42.666;23.264;2022-09-09T04:30:35;19.58;;;12.93;;
6344;SDS011;3205;42.666;23.264;2022-09-09T04:33:04;17.38;;;11.85;;
6344;SDS011;3205;42.666;23.264;2022-09-09T04:35:33;18.35;;;12.30;;
6344;SDS011;3205;42.666;23.264;2022-09-09T04:38:00;16.45;;;11.93;;
6344;SDS011;3205;42.666;23.264;2022-09-09T04:40:27;17.65;;;11.85;;
6344;SDS011;3205;42.666;23.264;2022-09-09T04:42:57;21.27;;;12.25;;
6344;SDS011;3205;42.666;23.264;2022-09-09T04:45:23;25.10;;;13.40;;
6344;SDS011;3205;42.666;23.264;2022-09-09T04:47:51;35.50;;;14.35;;
6344;SDS011;3205;42.666;23.264;2022-09-09T04:50:17;20.80;;;12.70;;
6344;SDS011;3205;42.666;23.264;2022-09-09T04:52:47;23.73;;;12.43;;
6344;SDS011;3205;42.666;23.264;2022-09-09T04:55:14;24.50;;;12.27;;
6344;SDS011;3205;42.666;23.264;2022-09-09T04:57:40;25.70;;;12.35;;
6344;SDS011;3205;42.666;23.264;2022-09-09T05:00:08;32.97;;;12.32;;
6344;SDS011;3205;42.666;23.264;2022-09-09T05:02:36;21.20;;;12.88;;
6344;SDS011;3205;42.666;23.264;2022-09-09T05:05:06;23.33;;;11.43;;
6344;SDS011;3205;42.666;23.264;2022-09-09T05:07:32;23.77;;;12.70;;
6344;SDS011;3205;42.666;23.264;2022-09-09T05:10:01;22.02;;;12.68;;
6344;SDS011;3205;42.666;23.264;2022-09-09T05:12:31;16.52;;;11.82;;
6344;SDS011;3205;42.666;23.264;2022-09-09T05:14:58;21.52;;;11.90;;
6344;SDS011;3205;42.666;23.264;2022-09-09T05:17:26;16.27;;;11.75;;
6344;SDS011;3205;42.666;23.264;2022-09-09T05:19:52;14.25;;;12.13;;
6344;SDS011;3205;42.666;23.264;2022-09-09T05:22:20;15.20;;;12.20;;
6344;SDS011;3205;42.666;23.264;2022-09-09T05:24:48;17.40;;;12.40;;
6344;SDS011;3205;42.666;23.264;2022-09-09T05:27:17;26.13;;;11.65;;
6344;SDS011;3205;42.666;23.264;2022-09-09T05:29:44;12.32;;;11.02;;
6344;SDS011;3205;42.666;23.264;2022-09-09T05:32:11;13.88;;;10.60;;
6344;SDS011;3205;42.666;23.264;2022-09-09T05:34:38;21.63;;;11.07;;
6344;SDS011;3205;42.666;23.264;2022-09-09T05:37:06;17.63;;;10.30;;
6344;SDS011;3205;42.666;23.264;2022-09-09T05:39:33;13.85;;;11.18;;
6344;SDS011;3205;42.666;23.264;2022-09-09T05:42:01;17.63;;;10.27;;
6344;SDS011;3205;42.666;23.264;2022-09-09T05:44:31;19.63;;;10.68;;
6344;SDS011;3205;42.666;23.264;2022-09-09T05:46:59;15.45;;;10.63;;
6344;SDS011;3205;42.666;23.264;2022-09-09T05:49:26;13.82;;;9.77;;
6344;SDS011;3205;42.666;23.264;2022-09-09T05:51:52;16.05;;;9.18;;
6344;SDS011;3205;42.666;23.264;2022-09-09T05:54:19;20.20;;;9.02;;
6344;SDS011;3205;42.666;23.264;2022-09-09T05:56:48;12.48;;;9.30;;
6344;SDS011;3205;42.666;23.264;2022-09-09T05:59:16;17.67;;;9.68;;
6344;SDS011;3205;42.666;23.264;2022-09-09T06:01:44;18.13;;;9.68;;
6344;SDS011;3205;42.666;23.264;2022-09-09T06:04:11;17.30;;;9.38;;
6344;SDS011;3205;42.666;23.264;2022-09-09T06:06:40;16.40;;;8.82;;
6344;SDS011;3205;42.666;23.264;2022-09-09T06:09:07;18.17;;;9.70;;
6344;SDS011;3205;42.666;23.264;2022-09-09T06:11:36;15.32;;;10.23;;
6344;SDS011;3205;42.666;23.264;2022-09-09T06:14:03;17.17;;;10.07;;
6344;SDS011;3205;42.666;23.264;2022-09-09T06:16:30;21.10;;;9.55;;
6344;SDS011;3205;42.666;23.264;2022-09-09T06:19:00;14.82;;;9.43;;
6344;SDS011;3205;42.666;23.264;2022-09-09T06:21:28;19.35;;;9.77;;
6344;SDS011;3205;42.666;23.264;2022-09-09T06:23:55;25.08;;;9.60;;
6344;SDS011;3205;42.666;23.264;2022-09-09T06:26:24;16.00;;;9.27;;
6344;SDS011;3205;42.666;23.264;2022-09-09T06:28:51;12.38;;;8.27;;
6344;SDS011;3205;42.666;23.264;2022-09-09T06:31:19;11.35;;;8.27;;
6344;SDS011;3205;42.666;23.264;2022-09-09T06:33:47;16.52;;;9.32;;
6344;SDS011;3205;42.666;23.264;2022-09-09T06:36:16;11.95;;;9.65;;
6344;SDS011;3205;42.666;23.264;2022-09-09T06:38:43;16.33;;;9.27;;
6344;SDS011;3205;42.666;23.264;2022-09-09T06:41:10;16.73;;;9.10;;
6344;SDS011;3205;42.666;23.264;2022-09-09T06:43:37;8.93;;;7.90;;
6344;SDS011;3205;42.666;23.264;2022-09-09T06:46:04;15.10;;;8.73;;
6344;SDS011;3205;42.666;23.264;2022-09-09T06:48:31;14.25;;;9.07;;
6344;SDS011;3205;42.666;23.264;2022-09-09T06:51:02;14.18;;;10.52;;
6344;SDS011;3205;42.666;23.264;2022-09-09T06:53:30;16.92;;;10.55;;
6344;SDS011;3205;42.666;23.264;2022-09-09T06:55:58;11.05;;;9.23;;
6344;SDS011;3205;42.666;23.264;2022-09-09T06:58:25;21.08;;;10.00;;
6344;SDS011;3205;42.666;23.264;2022-09-09T07:00:52;12.65;;;9.57;;
6344;SDS011;3205;42.666;23.264;2022-09-09T07:03:20;17.40;;;9.25;;
6344;SDS011;3205;42.666;23.264;2022-09-09T07:05:53;15.40;;;9.63;;
6344;SDS011;3205;42.666;23.264;2022-09-09T07:08:20;19.42;;;9.55;;
6344;SDS011;3205;42.666;23.264;2022-09-09T07:10:48;14.00;;;9.52;;
6344;SDS011;3205;42.666;23.264;2022-09-09T07:13:16;13.45;;;8.88;;
6344;SDS011;3205;42.666;23.264;2022-09-09T07:15:46;9.63;;;8.50;;
6344;SDS011;3205;42.666;23.264;2022-09-09T07:18:13;12.45;;;8.70;;
6344;SDS011;3205;42.666;23.264;2022-09-09T07:20:40;18.40;;;10.55;;
6344;SDS011;3205;42.666;23.264;2022-09-09T07:23:06;26.95;;;10.52;;
6344;SDS011;3205;42.666;23.264;2022-09-09T07:25:33;18.40;;;9.48;;
6344;SDS011;3205;42.666;23.264;2022-09-09T07:28:01;18.67;;;8.85;;
6344;SDS011;3205;42.666;23.264;2022-09-09T07:30:28;12.23;;;9.35;;
6344;SDS011;3205;42.666;23.264;2022-09-09T07:32:56;14.98;;;10.18;;
6344;SDS011;3205;42.666;23.264;2022-09-09T07:35:24;16.80;;;9.20;;
6344;SDS011;3205;42.666;23.264;2022-09-09T07:37:52;12.80;;;8.88;;
6344;SDS011;3205;42.666;23.264;2022-09-09T07:40:18;14.05;;;8.43;;
6344;SDS011;3205;42.666;23.264;2022-09-09T07:42:45;11.27;;;8.82;;
6344;SDS011;3205;42.666;23.264;2022-09-09T07:45:14;20.02;;;9.43;;
6344;SDS011;3205;42.666;23.264;2022-09-09T07:47:42;14.88;;;8.45;;
6344;SDS011;3205;42.666;23.264;2022-09-09T07:50:09;11.82;;;9.20;;
6344;SDS011;3205;42.666;23.264;2022-09-09T07:52:37;14.48;;;8.60;;
6344;SDS011;3205;42.666;23.264;2022-09-09T07:55:04;10.02;;;7.40;;
6344;SDS011;3205;42.666;23.264;2022-09-09T07:57:31;13.20;;;8.15;;
6344;SDS011;3205;42.666;23.264;2022-09-09T07:59:57;12.45;;;8.50;;
6344;SDS011;3205;42.666;23.264;2022-09-09T08:02:25;14.02;;;8.10;;
6344;SDS011;3205;42.666;23.264;2022-09-09T08:04:54;13.32;;;9.13;;
6344;SDS011;3205;42.666;23.264;2022-09-09T08:07:21;11.30;;;9.00;;
6344;SDS011;3205;42.666;23.264;2022-09-09T08:09:48;12.65;;;8.63;;
6344;SDS011;3205;42.666;23.264;2022-09-09T08:12:16;15.88;;;9.85;;
6344;SDS011;3205;42.666;23.264;2022-09-09T08:14:43;12.65;;;8.32;;
6344;SDS011;3205;42.666;23.264;2022-09-09T08:17:09;12.60;;;8.07;;
6344;SDS011;3205;42.666;23.264;2022-09-09T08:19:37;11.02;;;8.05;;
6344;SDS011;3205;42.666;23.264;2022-09-09T08:22:05;15.32;;;8.30;;
6344;SDS011;3205;42.666;23.264;2022-09-09T08:24:32;9.80;;;8.45;;
6344;SDS011;3205;42.666;23.264;2022-09-09T08:27:01;16.08;;;7.65;;
6344;SDS011;3205;42.666;23.264;2022-09-09T08:29:27;24.67;;;9.43;;
6344;SDS011;3205;42.666;23.264;2022-09-09T08:31:55;18.80;;;8.38;;
6344;SDS011;3205;42.666;23.264;2022-09-09T08:34:22;13.13;;;7.95;;
6344;SDS011;3205;42.666;23.264;2022-09-09T08:36:50;12.75;;;8.63;;
6344;SDS011;3205;42.666;23.264;2022-09-09T08:39:18;13.60;;;8.63;;
6344;SDS011;3205;42.666;23.264;2022-09-09T08:41:57;18.50;;;9.07;;
6344;SDS011;3205;42.666;23.264;2022-09-09T08:44:30;15.65;;;8.48;;
6344;SDS011;3205;42.666;23.264;2022-09-09T08:47:05;12.98;;;7.80;;
6344;SDS011;3205;42.666;23.264;2022-09-09T08:49:38;8.52;;;7.10;;
6344;SDS011;3205;42.666;23.264;2022-09-09T08:52:12;13.40;;;6.82;;
6344;SDS011;3205;42.666;23.264;2022-09-09T08:54:41;13.70;;;8.07;;
6344;SDS011;3205;42.666;23.264;2022-09-09T08:57:08;10.18;;;6.90;;
6344;SDS011;3205;42.666;23.264;2022-09-09T08:59:39;11.93;;;7.50;;
6344;SDS011;3205;42.666;23.264;2022-09-09T09:02:07;14.52;;;7.63;;
6344;SDS011;3205;42.666;23.264;2022-09-09T09:04:46;9.00;;;6.85;;
6344;SDS011;3205;42.666;23.264;2022-09-09T09:07:21;13.38;;;7.35;;
6344;SDS011;3205;42.666;23.264;2022-09-09T09:09:51;9.55;;;6.72;;
6344;SDS011;3205;42.666;23.264;2022-09-09T09:12:24;12.20;;;6.60;;
6344;SDS011;3205;42.666;23.264;2022-09-09T09:14:51;11.43;;;7.35;;
6344;SDS011;3205;42.666;23.264;2022-09-09T09:17:21;7.65;;;6.25;;
6344;SDS011;3205;42.666;23.264;2022-09-09T09:19:51;15.85;;;7.13;;
6344;SDS011;3205;42.666;23.264;2022-09-09T09:22:19;12.77;;;7.03;;
6344;SDS011;3205;42.666;23.264;2022-09-09T09:24:52;16.10;;;6.47;;
6344;SDS011;3205;42.666;23.264;2022-09-09T09:27:21;13.30;;;6.90;;
6344;SDS011;3205;42.666;23.264;2022-09-09T09:29:51;9.48;;;6.72;;
6344;SDS011;3205;42.666;23.264;2022-09-09T09:32:18;13.65;;;6.93;;
6344;SDS011;3205;42.666;23.264;2022-09-09T09:34:48;9.85;;;6.75;;
6344;SDS011;3205;42.666;23.264;2022-09-09T09:37:15;12.63;;;5.88;;
6344;SDS011;3205;42.666;23.264;2022-09-09T09:39:44;16.55;;;6.30;;
6344;SDS011;3205;42.666;23.264;2022-09-09T09:42:14;10.57;;;5.68;;
6344;SDS011;3205;42.666;23.264;2022-09-09T09:44:42;6.68;;;6.00;;
6344;SDS011;3205;42.666;23.264;2022-09-09T09:47:10;10.55;;;6.25;;
6344;SDS011;3205;42.666;23.264;2022-09-09T09:49:39;13.48;;;6.15;;
6344;SDS011;3205;42.666;23.264;2022-09-09T09:52:06;14.80;;;5.90;;
6344;SDS011;3205;42.666;23.264;2022-09-09T09:54:37;12.30;;;5.85;;
6344;SDS011;3205;42.666;23.264;2022-09-09T09:57:08;10.48;;;5.88;;
6344;SDS011;3205;42.666;23.264;2022-09-09T09:59:36;22.90;;;6.70;;
6344;SDS011;3205;42.666;23.264;2022-09-09T10:02:15;15.50;;;6.47;;
6344;SDS011;3205;42.666;23.264;2022-09-09T10:04:41;9.88;;;6.35;;
6344;SDS011;3205;42.666;23.264;2022-09-09T10:07:10;10.25;;;6.05;;
6344;SDS011;3205;42.666;23.264;2022-09-09T10:09:37;15.40;;;5.50;;
6344;SDS011;3205;42.666;23.264;2022-09-09T10:12:06;12.55;;;5.85;;
6344;SDS011;3205;42.666;23.264;2022-09-09T10:14:37;7.78;;;6.10;;
6344;SDS011;3205;42.666;23.264;2022-09-09T10:17:18;9.55;;;5.95;;
6344;SDS011;3205;42.666;23.264;2022-09-09T10:19:50;9.00;;;5.65;;
6344;SDS011;3205;42.666;23.264;2022-09-09T10:22:24;9.30;;;6.28;;
6344;SDS011;3205;42.666;23.264;2022-09-09T10:25:02;15.43;;;7.95;;
6344;SDS011;3205;42.666;23.264;2022-09-09T10:27:32;13.40;;;6.75;;
6344;SDS011;3205;42.666;23.264;2022-09-09T10:30:06;8.45;;;5.93;;
6344;SDS011;3205;42.666;23.264;2022-09-09T10:32:39;8.60;;;5.88;;
6344;SDS011;3205;42.666;23.264;2022-09-09T10:35:11;10.60;;;6.45;;
6344;SDS011;3205;42.666;23.264;2022-09-09T10:37:45;11.27;;;6.35;;
6344;SDS011;3205;42.666;23.264;2022-09-09T10:40:23;10.93;;;6.30;;
6344;SDS011;3205;42.666;23.264;2022-09-09T10:42:56;15.32;;;6.88;;
6344;SDS011;3205;42.666;23.264;2022-09-09T10:45:28;11.65;;;6.40;;
6344;SDS011;3205;42.666;23.264;2022-09-09T10:48:03;12.73;;;7.15;;
6344;SDS011;3205;42.666;23.264;2022-09-09T10:50:36;18.88;;;7.30;;
6344;SDS011;3205;42.666;23.264;2022-09-09T10:53:08;14.13;;;6.82;;
6344;SDS011;3205;42.666;23.264;2022-09-09T10:55:39;14.93;;;6.30;;
6344;SDS011;3205;42.666;23.264;2022-09-09T10:58:09;11.05;;;7.03;;
6344;SDS011;3205;42.666;23.264;2022-09-09T11:00:38;13.13;;;6.95;;
6344;SDS011;3205;42.666;23.264;2022-09-09T11:03:08;12.70;;;7.05;;
6344;SDS011;3205;42.666;23.264;2022-09-09T11:05:39;12.80;;;7.43;;
6344;SDS011;3205;42.666;23.264;2022-09-09T11:08:09;14.05;;;7.07;;
6344;SDS011;3205;42.666;23.264;2022-09-09T11:10:39;12.40;;;6.75;;
6344;SDS011;3205;42.666;23.264;2022-09-09T11:13:10;15.40;;;7.28;;
6344;SDS011;3205;42.666;23.264;2022-09-09T11:15:41;18.73;;;7.18;;
6344;SDS011;3205;42.666;23.264;2022-09-09T11:18:13;19.73;;;6.97;;
6344;SDS011;3205;42.666;23.264;2022-09-09T11:20:40;16.17;;;6.78;;
6344;SDS011;3205;42.666;23.264;2022-09-09T11:23:10;18.80;;;6.93;;
6344;SDS011;3205;42.666;23.264;2022-09-09T11:25:38;15.35;;;7.38;;
6344;SDS011;3205;42.666;23.264;2022-09-09T11:30:54;15.82;;;7.28;;
6344;SDS011;3205;42.666;23.264;2022-09-09T11:36:24;13.98;;;7.00;;
6344;SDS011;3205;42.666;23.264;2022-09-09T11:38:56;15.98;;;8.02;;
6344;SDS011;3205;42.666;23.264;2022-09-09T11:41:32;13.50;;;7.10;;
6344;SDS011;3205;42.666;23.264;2022-09-09T11:44:08;14.68;;;7.43;;
6344;SDS011;3205;42.666;23.264;2022-09-09T11:46:38;14.98;;;7.85;;
6344;SDS011;3205;42.666;23.264;2022-09-09T11:49:05;20.40;;;7.28;;
6344;SDS011;3205;42.666;23.264;2022-09-09T11:51:33;14.02;;;7.05;;
6344;SDS011;3205;42.666;23.264;2022-09-09T11:54:01;11.38;;;7.45;;
6344;SDS011;3205;42.666;23.264;2022-09-09T11:56:28;15.32;;;7.57;;
6344;SDS011;3205;42.666;23.264;2022-09-09T11:58:58;19.15;;;8.05;;
6344;SDS011;3205;42.666;23.264;2022-09-09T12:01:29;15.55;;;7.00;;
6344;SDS011;3205;42.666;23.264;2022-09-09T12:04:06;18.40;;;7.32;;
6344;SDS011;3205;42.666;23.264;2022-09-09T12:06:41;14.13;;;7.30;;
6344;SDS011;3205;42.666;23.264;2022-09-09T12:09:09;13.60;;;7.47;;
6344;SDS011;3205;42.666;23.264;2022-09-09T12:11:40;17.02;;;7.15;;
6344;SDS011;3205;42.666;23.264;2022-09-09T12:14:18;12.55;;;7.20;;
6344;SDS011;3205;42.666;23.264;2022-09-09T12:16:46;15.20;;;7.40;;
6344;SDS011;3205;42.666;23.264;2022-09-09T12:19:16;19.27;;;7.25;;
6344;SDS011;3205;42.666;23.264;2022-09-09T12:21:45;13.82;;;7.72;;
6344;SDS011;3205;42.666;23.264;2022-09-09T12:24:15;10.65;;;6.60;;
6344;SDS011;3205;42.666;23.264;2022-09-09T12:26:47;13.07;;;7.20;;
6344;SDS011;3205;42.666;23.264;2022-09-09T12:29:21;14.98;;;6.97;;
6344;SDS011;3205;42.666;23.264;2022-09-09T12:31:54;17.02;;;6.65;;
6344;SDS011;3205;42.666;23.264;2022-09-09T12:34:33;10.35;;;7.10;;
6344;SDS011;3205;42.666;23.264;2022-09-09T12:37:03;14.65;;;7.40;;
6344;SDS011;3205;42.666;23.264;2022-09-09T12:39:34;13.98;;;6.65;;
6344;SDS011;3205;42.666;23.264;2022-09-09T12:42:03;13.02;;;7.30;;
6344;SDS011;3205;42.666;23.264;2022-09-09T12:44:30;20.67;;;7.85;;
6344;SDS011;3205;42.666;23.264;2022-09-09T12:46:58;16.02;;;7.00;;
6344;SDS011;3205;42.666;23.264;2022-09-09T12:49:29;11.98;;;6.35;;
6344;SDS011;3205;42.666;23.264;2022-09-09T12:51:59;14.30;;;6.18;;
6344;SDS011;3205;42.666;23.264;2022-09-09T12:54:27;13.05;;;5.15;;
6344;SDS011;3205;42.666;23.264;2022-09-09T12:56:54;9.02;;;5.15;;
6344;SDS011;3205;42.666;23.264;2022-09-09T12:59:22;12.00;;;5.38;;
6344;SDS011;3205;42.666;23.264;2022-09-09T13:01:57;13.70;;;5.20;;
6344;SDS011;3205;42.666;23.264;2022-09-09T13:04:25;15.48;;;5.50;;
6344;SDS011;3205;42.666;23.264;2022-09-09T13:06:53;12.50;;;5.35;;
6344;SDS011;3205;42.666;23.264;2022-09-09T13:09:20;14.23;;;5.47;;
6344;SDS011;3205;42.666;23.264;2022-09-09T13:11:47;12.80;;;5.18;;
6344;SDS011;3205;42.666;23.264;2022-09-09T13:14:16;13.45;;;5.25;;
6344;SDS011;3205;42.666;23.264;2022-09-09T13:16:53;12.35;;;5.30;;
6344;SDS011;3205;42.666;23.264;2022-09-09T13:19:20;9.77;;;5.90;;
6344;SDS011;3205;42.666;23.264;2022-09-09T13:21:51;11.60;;;5.40;;
6344;SDS011;3205;42.666;23.264;2022-09-09T13:24:24;9.68;;;6.13;;
6344;SDS011;3205;42.666;23.264;2022-09-09T13:26:54;9.15;;;5.43;;
6344;SDS011;3205;42.666;23.264;2022-09-09T13:29:21;13.38;;;5.50;;
6344;SDS011;3205;42.666;23.264;2022-09-09T13:31:48;20.67;;;6.88;;
6344;SDS011;3205;42.666;23.264;2022-09-09T13:34:25;12.50;;;7.47;;
6344;SDS011;3205;42.666;23.264;2022-09-09T13:36:55;12.75;;;7.88;;
6344;SDS011;3205;42.666;23.264;2022-09-09T13:39:25;14.23;;;7.03;;
6344;SDS011;3205;42.666;23.264;2022-09-09T13:41:51;15.10;;;7.43;;
6344;SDS011;3205;42.666;23.264;2022-09-09T13:44:20;18.98;;;7.70;;
6344;SDS011;3205;42.666;23.264;2022-09-09T13:46:58;19.50;;;7.65;;
6344;SDS011;3205;42.666;23.264;2022-09-09T13:49:27;10.50;;;7.05;;
6344;SDS011;3205;42.666;23.264;2022-09-09T13:52:08;13.18;;;7.00;;
6344;SDS011;3205;42.666;23.264;2022-09-09T13:54:37;21.67;;;7.32;;
6344;SDS011;3205;42.666;23.264;2022-09-09T13:57:11;14.65;;;7.40;;
6344;SDS011;3205;42.666;23.264;2022-09-09T13:59:40;10.07;;;6.85;;
6344;SDS011;3205;42.666;23.264;2022-09-09T14:02:08;11.25;;;8.32;;
6344;SDS011;3205;42.666;23.264;2022-09-09T14:04:34;20.17;;;8.02;;
6344;SDS011;3205;42.666;23.264;2022-09-09T14:07:03;20.02;;;7.38;;
6344;SDS011;3205;42.666;23.264;2022-09-09T14:09:29;16.05;;;7.32;;
6344;SDS011;3205;42.666;23.264;2022-09-09T14:11:59;13.35;;;7.43;;
6344;SDS011;3205;42.666;23.264;2022-09-09T14:14:27;13.75;;;7.13;;
6344;SDS011;3205;42.666;23.264;2022-09-09T14:16:53;13.85;;;7.05;;
6344;SDS011;3205;42.666;23.264;2022-09-09T14:19:20;13.15;;;6.95;;
6344;SDS011;3205;42.666;23.264;2022-09-09T14:21:49;11.95;;;7.25;;
6344;SDS011;3205;42.666;23.264;2022-09-09T14:24:16;16.27;;;7.18;;
6344;SDS011;3205;42.666;23.264;2022-09-09T14:26:42;12.13;;;7.22;;
6344;SDS011;3205;42.666;23.264;2022-09-09T14:29:10;15.93;;;7.45;;
6344;SDS011;3205;42.666;23.264;2022-09-09T14:31:38;14.50;;;7.40;;
6344;SDS011;3205;42.666;23.264;2022-09-09T14:34:05;11.98;;;7.70;;
6344;SDS011;3205;42.666;23.264;2022-09-09T14:36:32;15.98;;;8.00;;
6344;SDS011;3205;42.666;23.264;2022-09-09T14:39:00;10.10;;;7.18;;
6344;SDS011;3205;42.666;23.264;2022-09-09T14:41:27;14.65;;;6.78;;
6344;SDS011;3205;42.666;23.264;2022-09-09T14:43:54;18.65;;;7.18;;
6344;SDS011;3205;42.666;23.264;2022-09-09T14:46:22;20.13;;;8.02;;
6344;SDS011;3205;42.666;23.264;2022-09-09T14:48:51;12.40;;;7.75;;
6344;SDS011;3205;42.666;23.264;2022-09-09T14:51:19;14.32;;;6.88;;
6344;SDS011;3205;42.666;23.264;2022-09-09T14:53:47;18.58;;;7.13;;
6344;SDS011;3205;42.666;23.264;2022-09-09T14:56:14;9.82;;;6.43;;
6344;SDS011;3205;42.666;23.264;2022-09-09T14:58:41;9.43;;;7.53;;
6344;SDS011;3205;42.666;23.264;2022-09-09T15:01:09;25.42;;;7.50;;
6344;SDS011;3205;42.666;23.264;2022-09-09T15:03:38;10.82;;;8.50;;
6344;SDS011;3205;42.666;23.264;2022-09-09T15:06:05;13.75;;;7.22;;